BOEING STORE ニューアイテム続々!!!

LUXURY FLIGHT

03-6423-7371

羽田本店:東京都大田区羽田5-11-1
営業時間:10:00~20:00
定休日:毎週 月曜日
セントレア店:愛知県常滑市セントレア1-1
営業時間:10:00~20:00 年中無休

lv

BOEING STORE ニューアイテム続々!!!

STAFF BLOG

2019/08/11 BOEING STORE ニューアイテム続々!!!

こんちわっすーーーーー

 

 

いよいよ始まりましたね、お盆休み!!!

 

 

利用される方で埋め尽くされているであろう、羽田空港の本日のMETARは…

 

RJTT 110300Z 06003KT 9999 FEW015 SCT/// 33/25 Q1008 BECMG 12006KT

 

 

さてさて、本日は先日シアトルから到着したばかりの、ニューアイテムのご紹介!!

 

 

 

img_2643

 

 

いつものアパレルを中心に、小物も多く入荷しました!!

 

 

 

img_2644

 

 

 

皆様のご来店を心よりお待ちいたしております!!

 

 

 

いつもブログを読んでくださり本当にありがとうございます。

 

 

「感謝」

TOP